createdAt,value
2017-09-11T00:00:01.280Z,1.60
2017-09-11T00:02:31.664Z,1.63
2017-09-11T00:05:03.240Z,1.93
2017-09-11T00:07:33.559Z,1.87
2017-09-11T00:10:05.918Z,1.80
2017-09-11T00:12:36.291Z,1.80
2017-09-11T00:15:06.709Z,2.10
2017-09-11T00:17:37.094Z,2.10
2017-09-11T00:20:07.482Z,2.00
2017-09-11T00:22:37.900Z,2.77
2017-09-11T00:25:09.060Z,2.33
2017-09-11T00:27:39.438Z,2.57
2017-09-11T00:30:09.768Z,2.60
2017-09-11T00:32:40.122Z,2.60
2017-09-11T00:35:10.451Z,3.37
2017-09-11T00:37:40.862Z,3.33
2017-09-11T00:40:11.607Z,2.90
2017-09-11T00:42:42.799Z,2.40
2017-09-11T00:45:13.241Z,4.07
2017-09-11T00:47:43.594Z,3.20
2017-09-11T00:50:14.020Z,3.30
2017-09-11T00:52:44.710Z,3.90
2017-09-11T00:55:15.091Z,3.40
2017-09-11T00:57:46.633Z,3.60
2017-09-11T01:00:17.228Z,3.33
2017-09-11T01:02:48.383Z,4.30
2017-09-11T01:05:19.002Z,4.00
2017-09-11T01:07:49.407Z,4.83
2017-09-11T01:10:20.806Z,4.37
2017-09-11T01:12:51.369Z,4.80
2017-09-11T01:15:21.806Z,4.60
2017-09-11T01:17:52.214Z,5.17
2017-09-11T01:20:22.595Z,4.90
2017-09-11T01:22:53.379Z,4.57
2017-09-11T01:25:24.564Z,4.40
2017-09-11T01:27:55.597Z,4.47
2017-09-11T01:30:25.914Z,5.27
2017-09-11T01:32:56.205Z,4.10
2017-09-11T01:35:26.615Z,3.80
2017-09-11T01:37:56.982Z,4.70
2017-09-11T01:40:28.263Z,3.77
2017-09-11T01:42:58.662Z,3.47
2017-09-11T01:45:31.419Z,3.80
2017-09-11T01:48:01.812Z,3.90
2017-09-11T01:50:32.171Z,3.93
2017-09-11T01:53:02.687Z,3.50
2017-09-11T01:55:33.022Z,2.70
2017-09-11T01:58:04.074Z,3.70
2017-09-11T02:00:34.436Z,3.03
2017-09-11T02:03:05.263Z,3.20
2017-09-11T02:05:35.683Z,3.03
2017-09-11T02:08:06.123Z,2.87
2017-09-11T02:10:36.929Z,2.87
2017-09-11T02:13:07.514Z,2.83
2017-09-11T02:15:38.282Z,3.30
2017-09-11T02:18:08.620Z,2.20
2017-09-11T02:20:39.008Z,2.70
2017-09-11T02:23:09.325Z,2.43
2017-09-11T02:25:39.680Z,2.63
2017-09-11T02:28:10.432Z,2.70
2017-09-11T02:30:40.744Z,2.43
2017-09-11T02:33:11.187Z,1.73
2017-09-11T02:35:42.370Z,2.10
2017-09-11T02:38:14.613Z,2.70
2017-09-11T02:40:47.319Z,2.63
2017-09-11T02:43:17.919Z,2.43
2017-09-11T02:45:49.395Z,2.90
2017-09-11T02:48:19.801Z,1.87
2017-09-11T02:50:51.220Z,2.10
2017-09-11T02:53:21.510Z,2.07
2017-09-11T02:55:51.864Z,1.77
2017-09-11T02:58:22.467Z,2.60
2017-09-11T03:00:52.841Z,1.97
2017-09-11T03:03:24.092Z,2.87
2017-09-11T03:05:54.468Z,2.40
2017-09-11T03:08:24.808Z,2.23
2017-09-11T03:10:55.157Z,2.00
2017-09-11T03:13:25.531Z,2.73
2017-09-11T03:15:55.872Z,2.20
2017-09-11T03:18:26.200Z,2.27
2017-09-11T03:20:56.645Z,10.07
2017-09-11T03:23:27.062Z,6.23
2017-09-11T03:25:57.392Z,6.00
2017-09-11T03:28:28.143Z,3.13
2017-09-11T03:30:58.482Z,3.93
2017-09-11T03:33:29.110Z,2.83
2017-09-11T03:36:00.780Z,3.30
2017-09-11T03:38:31.184Z,2.50
2017-09-11T03:41:02.286Z,3.13
2017-09-11T03:43:32.689Z,3.27
2017-09-11T03:46:03.489Z,3.10
2017-09-11T03:48:33.868Z,3.07
2017-09-11T03:51:04.224Z,3.17
2017-09-11T03:53:34.513Z,3.50
2017-09-11T03:56:04.812Z,3.10
2017-09-11T03:58:35.158Z,3.53
2017-09-11T04:01:05.529Z,3.50
2017-09-11T04:03:37.006Z,4.10
2017-09-11T04:06:07.353Z,3.60
2017-09-11T04:08:37.689Z,4.10
2017-09-11T04:11:08.067Z,4.60
2017-09-11T04:13:39.296Z,4.50
2017-09-11T04:16:10.761Z,4.30
2017-09-11T04:18:41.342Z,5.00
2017-09-11T04:21:11.915Z,5.23
2017-09-11T04:23:42.243Z,4.63
2017-09-11T04:26:12.610Z,4.90
2017-09-11T04:28:42.936Z,4.40
2017-09-11T04:31:13.235Z,6.27
2017-09-11T04:33:44.102Z,5.10
2017-09-11T04:36:14.415Z,5.20
2017-09-11T04:38:44.825Z,6.30
2017-09-11T04:41:15.396Z,5.73
2017-09-11T04:43:45.813Z,5.10
2017-09-11T04:46:16.154Z,5.37
2017-09-11T04:48:46.544Z,5.13
2017-09-11T04:51:16.893Z,4.70
2017-09-11T04:53:47.185Z,4.47
2017-09-11T04:56:22.749Z,4.93
2017-09-11T04:58:53.160Z,5.00
2017-09-11T05:01:23.517Z,4.73
2017-09-11T05:03:54.255Z,5.10
2017-09-11T05:06:25.501Z,5.43
2017-09-11T05:08:55.908Z,5.47
2017-09-11T05:11:26.198Z,7.23
2017-09-11T05:13:56.476Z,5.70
2017-09-11T05:16:26.774Z,6.20
2017-09-11T05:18:57.101Z,7.53
2017-09-11T05:21:27.942Z,5.90
2017-09-11T05:23:58.274Z,6.83
2017-09-11T05:26:28.654Z,6.33
2017-09-11T05:28:59.614Z,7.40
2017-09-11T05:31:29.992Z,7.20
2017-09-11T05:34:02.602Z,7.10
2017-09-11T05:36:33.016Z,8.30
2017-09-11T05:39:03.895Z,7.77
2017-09-11T05:41:34.279Z,8.60
2017-09-11T05:44:04.650Z,8.43
2017-09-11T05:46:34.961Z,8.73
2017-09-11T05:49:05.268Z,8.83
2017-09-11T05:51:36.180Z,9.17
2017-09-11T05:54:07.519Z,9.00
2017-09-11T05:56:37.866Z,9.30
2017-09-11T05:59:08.205Z,8.20
2017-09-11T06:01:38.530Z,8.30
2017-09-11T06:04:09.425Z,8.10
2017-09-11T06:06:39.821Z,8.07
2017-09-11T06:09:10.623Z,8.17
2017-09-11T06:11:40.926Z,7.70
2017-09-11T06:14:11.540Z,7.70
2017-09-11T06:16:42.192Z,8.50
2017-09-11T06:19:13.258Z,7.83
2017-09-11T06:21:43.769Z,7.97
2017-09-11T06:24:14.074Z,7.17
2017-09-11T06:26:45.548Z,8.13
2017-09-11T06:29:16.032Z,7.63
2017-09-11T06:31:46.597Z,8.97
2017-09-11T06:34:17.768Z,7.57
2017-09-11T06:36:48.181Z,8.03
2017-09-11T06:39:18.498Z,7.00
2017-09-11T06:41:48.881Z,7.17
2017-09-11T06:44:19.177Z,8.00
2017-09-11T06:46:49.506Z,8.27
2017-09-11T06:49:21.347Z,8.73
2017-09-11T06:51:52.731Z,6.80
2017-09-11T06:54:23.037Z,7.60
2017-09-11T06:56:54.662Z,6.70
2017-09-11T06:59:25.068Z,6.70
2017-09-11T07:02:40.699Z,6.47
2017-09-11T07:05:11.493Z,7.30
2017-09-11T07:07:43.702Z,6.93
2017-09-11T07:10:14.988Z,7.40
2017-09-11T07:12:57.276Z,10.60
2017-09-11T07:15:27.695Z,10.93
2017-09-11T07:17:58.577Z,12.40
2017-09-11T07:20:29.694Z,11.50
2017-09-11T07:23:00.135Z,9.07
2017-09-11T07:25:31.356Z,9.20
2017-09-11T07:28:01.815Z,6.93
2017-09-11T07:30:35.118Z,5.93
2017-09-11T07:33:08.013Z,6.10
2017-09-11T07:35:43.397Z,5.40
2017-09-11T07:38:18.068Z,6.30
2017-09-11T07:40:50.141Z,6.33
2017-09-11T07:43:21.261Z,5.70
2017-09-11T07:45:52.364Z,5.57
2017-09-11T07:48:23.884Z,5.93
2017-09-11T07:50:54.307Z,6.20
2017-09-11T07:53:25.762Z,6.03
2017-09-11T07:55:56.187Z,5.83
2017-09-11T07:58:26.644Z,5.77
2017-09-11T08:00:56.954Z,6.50
2017-09-11T08:03:27.354Z,6.77
2017-09-11T08:05:58.102Z,6.97
2017-09-11T08:08:28.507Z,7.03
2017-09-11T08:11:00.646Z,6.40
2017-09-11T08:13:31.038Z,6.30
2017-09-11T08:16:01.359Z,6.10
2017-09-11T08:18:31.765Z,6.77
2017-09-11T08:21:02.099Z,6.77
2017-09-11T08:23:32.510Z,7.23
2017-09-11T08:26:02.895Z,6.67
2017-09-11T08:28:33.439Z,7.10
2017-09-11T08:31:04.677Z,6.80
2017-09-11T08:33:34.967Z,6.80
2017-09-11T08:36:05.519Z,6.40
2017-09-11T08:38:35.822Z,7.07
2017-09-11T08:41:07.575Z,6.00
2017-09-11T08:43:37.875Z,5.90
2017-09-11T08:46:08.205Z,7.60
2017-09-11T08:48:38.669Z,6.10
2017-09-11T08:51:10.235Z,5.93
2017-09-11T08:53:45.090Z,6.17
2017-09-11T08:56:16.176Z,5.80
2017-09-11T08:58:46.532Z,6.50
2017-09-11T09:01:16.911Z,6.27
2017-09-11T09:03:47.234Z,7.20
2017-09-11T09:06:18.053Z,6.20
2017-09-11T09:08:48.408Z,6.27
2017-09-11T09:11:19.221Z,6.97
2017-09-11T09:13:49.646Z,7.37
2017-09-11T09:16:21.016Z,7.13
2017-09-11T09:18:51.401Z,7.80
2017-09-11T09:21:22.509Z,7.80
2017-09-11T09:23:53.752Z,7.37
2017-09-11T09:26:24.143Z,7.80
2017-09-11T09:28:54.571Z,6.93
2017-09-11T09:31:24.977Z,6.43
2017-09-11T09:37:16.013Z,7.30
2017-09-11T09:39:48.934Z,7.90
2017-09-11T09:42:19.315Z,8.10
2017-09-11T09:44:50.653Z,8.20
2017-09-11T09:47:21.792Z,7.07
2017-09-11T09:49:52.179Z,7.20
2017-09-11T09:52:23.077Z,7.27
2017-09-11T09:54:54.141Z,7.67
2017-09-11T09:57:24.536Z,6.43
2017-09-11T09:59:55.737Z,6.77
2017-09-11T10:02:26.071Z,6.60
2017-09-11T10:04:57.053Z,6.90
2017-09-11T10:07:28.133Z,7.03
2017-09-11T10:09:58.918Z,6.70
2017-09-11T10:12:30.093Z,7.23
2017-09-11T10:15:00.490Z,7.07
2017-09-11T10:17:31.597Z,7.33
2017-09-11T10:20:04.299Z,7.33
2017-09-11T10:22:34.605Z,7.80
2017-09-11T10:25:04.973Z,7.57
2017-09-11T10:27:35.341Z,8.03
2017-09-11T10:30:05.708Z,9.20
2017-09-11T10:32:37.873Z,9.07
2017-09-11T10:35:09.619Z,9.67
2017-09-11T10:37:40.917Z,9.00
2017-09-11T10:40:11.381Z,9.20
2017-09-11T10:42:41.767Z,8.80
2017-09-11T10:45:12.098Z,9.07
2017-09-11T10:47:43.233Z,8.47
2017-09-11T10:50:13.615Z,9.13
2017-09-11T10:52:45.047Z,8.90
2017-09-11T10:55:15.349Z,9.03
2017-09-11T10:57:45.692Z,9.33
2017-09-11T11:00:16.459Z,9.13
2017-09-11T11:02:46.930Z,8.77
2017-09-11T11:05:18.395Z,9.30
2017-09-11T11:07:48.791Z,8.13
2017-09-11T11:10:19.690Z,10.30
2017-09-11T11:12:50.112Z,11.50
2017-09-11T11:15:20.509Z,11.40
2017-09-11T11:17:50.826Z,12.33
2017-09-11T11:20:21.123Z,11.63
2017-09-11T11:22:51.894Z,11.80
2017-09-11T11:25:22.202Z,11.03
2017-09-11T11:27:52.568Z,12.13
2017-09-11T11:30:22.947Z,12.70
2017-09-11T11:32:53.471Z,12.50
2017-09-11T11:35:23.877Z,13.53
2017-09-11T11:37:54.225Z,12.20
2017-09-11T11:40:25.023Z,12.13
2017-09-11T11:42:56.118Z,13.67
2017-09-11T11:45:27.471Z,11.97
2017-09-11T11:47:57.895Z,10.80
2017-09-11T11:50:28.210Z,11.17
2017-09-11T11:52:59.521Z,9.70
2017-09-11T11:55:30.776Z,9.23
2017-09-11T11:58:01.231Z,9.80
2017-09-11T12:00:31.590Z,9.97
2017-09-11T12:03:01.959Z,8.73
2017-09-11T12:05:32.321Z,9.40
2017-09-11T12:08:02.644Z,9.57
2017-09-11T12:10:33.403Z,9.80
2017-09-11T12:13:03.919Z,8.50
2017-09-11T12:15:34.218Z,9.40
2017-09-11T12:18:04.643Z,9.07
2017-09-11T12:20:34.946Z,9.43
2017-09-11T12:23:05.749Z,9.53
2017-09-11T12:25:36.904Z,9.27
2017-09-11T12:28:08.560Z,9.50
2017-09-11T12:30:39.693Z,11.07
2017-09-11T12:33:10.882Z,10.20
2017-09-11T12:35:41.380Z,10.40
2017-09-11T12:38:11.863Z,11.07
2017-09-11T12:40:42.764Z,11.00
2017-09-11T12:43:13.085Z,9.63
2017-09-11T12:45:43.442Z,9.70
2017-09-11T12:48:15.177Z,9.37
2017-09-11T12:50:45.496Z,11.10
2017-09-11T12:53:16.601Z,10.40
2017-09-11T12:55:47.766Z,9.63
2017-09-11T12:58:18.623Z,10.90
2017-09-11T13:00:48.966Z,10.07
2017-09-11T13:03:19.368Z,9.70
2017-09-11T13:05:49.728Z,10.00
2017-09-11T13:08:20.298Z,9.63
2017-09-11T13:10:51.743Z,9.30
2017-09-11T13:13:22.116Z,9.17
2017-09-11T13:15:52.475Z,8.90
2017-09-11T13:18:23.643Z,9.63
2017-09-11T13:20:54.773Z,9.90
2017-09-11T13:23:27.145Z,10.37
2017-09-11T13:25:58.551Z,10.07
2017-09-11T13:28:29.388Z,9.57
2017-09-11T13:30:59.705Z,9.50
2017-09-11T13:33:29.995Z,9.60
2017-09-11T13:36:01.395Z,9.83
2017-09-11T13:38:31.818Z,10.43
2017-09-11T13:41:03.023Z,9.20
2017-09-11T13:43:33.441Z,10.93
2017-09-11T13:46:03.782Z,10.07
2017-09-11T13:48:34.115Z,9.80
2017-09-11T13:51:03.797Z,10.33
2017-09-11T13:53:34.440Z,11.30
2017-09-11T13:56:04.105Z,10.00
2017-09-11T13:58:35.057Z,10.27
2017-09-11T14:01:04.736Z,10.07
2017-09-11T14:03:34.436Z,9.30
2017-09-11T14:06:04.372Z,9.20
2017-09-11T14:08:34.122Z,10.60
2017-09-11T14:11:05.136Z,9.10
2017-09-11T14:13:35.099Z,9.40
2017-09-11T14:16:05.261Z,11.07
2017-09-11T14:18:34.953Z,10.30
2017-09-11T14:21:04.677Z,9.50
2017-09-11T14:23:34.573Z,10.00
2017-09-11T14:26:04.330Z,10.07
2017-09-11T14:28:35.157Z,10.50
2017-09-11T14:31:06.457Z,9.73
2017-09-11T14:33:36.189Z,10.73
2017-09-11T14:36:06.065Z,9.50
2017-09-11T14:38:35.765Z,10.30
2017-09-11T14:41:06.062Z,11.30
2017-09-11T14:43:36.579Z,10.27
2017-09-11T14:46:06.517Z,10.50
2017-09-11T14:48:37.017Z,11.37
2017-09-11T14:51:07.493Z,11.00
2017-09-11T14:53:39.147Z,11.00
2017-09-11T14:56:08.813Z,10.83
2017-09-11T14:58:39.628Z,11.57
2017-09-11T15:01:09.500Z,11.23
2017-09-11T15:03:40.142Z,11.20
2017-09-11T15:06:10.757Z,9.20
2017-09-11T15:08:40.471Z,11.10
2017-09-11T15:11:11.469Z,10.90
2017-09-11T15:13:41.322Z,11.10
2017-09-11T15:16:11.066Z,10.67
2017-09-11T15:18:40.820Z,11.10
2017-09-11T15:21:11.251Z,11.17
2017-09-11T15:23:41.663Z,11.10
2017-09-11T15:26:11.310Z,10.37
2017-09-11T15:28:41.507Z,9.90
2017-09-11T15:31:11.967Z,10.70
2017-09-11T15:33:41.949Z,11.00
2017-09-11T15:36:12.378Z,10.20
2017-09-11T15:38:42.982Z,10.57
2017-09-11T15:41:12.655Z,10.90
2017-09-11T15:43:42.333Z,11.03
2017-09-11T15:46:13.673Z,9.87
2017-09-11T15:48:44.110Z,9.70
2017-09-11T15:51:14.550Z,11.03
2017-09-11T15:53:44.961Z,11.20
2017-09-11T15:56:16.022Z,11.17
2017-09-11T15:58:46.727Z,9.53
2017-09-11T16:01:17.789Z,9.87
2017-09-11T16:03:48.663Z,9.93
2017-09-11T16:06:18.356Z,9.23
2017-09-11T16:08:48.053Z,9.60
2017-09-11T16:11:17.742Z,9.43
2017-09-11T16:13:48.173Z,9.03
2017-09-11T16:16:18.899Z,7.97
2017-09-11T16:18:49.377Z,8.77
2017-09-11T16:21:19.034Z,8.07
2017-09-11T16:23:49.503Z,7.90
2017-09-11T16:26:19.175Z,9.70
2017-09-11T16:28:49.977Z,9.33
2017-09-11T16:31:19.706Z,8.77
2017-09-11T16:33:50.345Z,8.37
2017-09-11T16:36:20.757Z,8.40
2017-09-11T16:38:50.407Z,8.97
2017-09-11T16:41:20.123Z,8.67
2017-09-11T16:43:49.802Z,9.00
2017-09-11T16:46:20.728Z,9.20
2017-09-11T16:48:50.456Z,8.13
2017-09-11T16:51:20.449Z,8.67
2017-09-11T16:53:50.131Z,8.33
2017-09-11T16:56:19.831Z,8.87
2017-09-11T16:58:49.687Z,7.70
2017-09-11T17:01:20.141Z,7.80
2017-09-11T17:03:49.973Z,7.87
2017-09-11T17:06:19.640Z,6.60
2017-09-11T17:08:50.090Z,7.93
2017-09-11T17:11:19.733Z,7.47
2017-09-11T17:13:49.385Z,8.20
2017-09-11T17:16:20.201Z,7.70
2017-09-11T17:18:49.858Z,8.20
2017-09-11T17:21:19.914Z,7.40
2017-09-11T17:23:49.622Z,7.80
2017-09-11T17:26:19.299Z,7.37
2017-09-11T17:28:48.973Z,8.50
2017-09-11T17:31:19.410Z,6.47
2017-09-11T17:33:50.316Z,7.43
2017-09-11T17:36:20.000Z,7.70
2017-09-11T17:38:49.962Z,7.70
2017-09-11T17:41:20.548Z,6.80
2017-09-11T17:43:50.238Z,6.90
2017-09-11T17:46:20.113Z,6.37
2017-09-11T17:48:50.744Z,6.57
2017-09-11T17:51:21.567Z,6.70
2017-09-11T17:53:51.255Z,7.07
2017-09-11T17:56:20.920Z,7.00
2017-09-11T17:58:50.601Z,7.23
2017-09-11T18:01:20.274Z,7.23
2017-09-11T18:03:50.431Z,6.53
2017-09-11T18:06:20.873Z,6.83
2017-09-11T18:08:52.011Z,6.03
2017-09-11T18:11:22.644Z,6.27
2017-09-11T18:13:53.090Z,6.00
2017-09-11T18:16:22.775Z,5.60
2017-09-11T18:18:53.214Z,5.67
2017-09-11T18:21:23.989Z,6.00
2017-09-11T18:23:53.635Z,6.07
2017-09-11T18:26:23.330Z,5.63
2017-09-11T18:28:53.023Z,5.93
2017-09-11T18:31:22.678Z,6.67
2017-09-11T18:33:53.513Z,6.33
2017-09-11T18:36:23.917Z,5.47
2017-09-11T18:38:53.948Z,5.97
2017-09-11T18:41:24.384Z,6.00
2017-09-11T18:43:55.010Z,5.63
2017-09-11T18:46:25.456Z,5.77
2017-09-11T18:48:55.129Z,6.90
2017-09-11T18:51:25.130Z,7.07
2017-09-11T18:53:54.790Z,6.70
2017-09-11T18:56:24.991Z,6.77
2017-09-11T18:58:55.420Z,7.50
2017-09-11T19:01:25.872Z,6.57
2017-09-11T19:03:55.550Z,6.70
2017-09-11T19:06:26.000Z,6.80
2017-09-11T19:08:56.095Z,6.10
2017-09-11T19:11:26.722Z,6.00
2017-09-11T19:13:57.197Z,7.57
2017-09-11T19:16:26.858Z,6.67
2017-09-11T19:18:57.301Z,7.03
2017-09-11T19:21:28.316Z,7.07
2017-09-11T19:23:58.247Z,8.83
2017-09-11T19:26:29.170Z,7.00
2017-09-11T19:28:58.847Z,8.10
2017-09-11T19:31:28.496Z,7.63
2017-09-11T19:33:58.941Z,7.87
2017-09-11T19:36:29.358Z,8.07
2017-09-11T19:39:01.006Z,7.80
2017-09-11T19:41:31.439Z,7.03
2017-09-11T19:44:01.872Z,7.13
2017-09-11T19:46:32.289Z,8.47
2017-09-11T19:49:02.750Z,7.97
2017-09-11T19:51:32.931Z,8.83
2017-09-11T19:54:03.363Z,8.03
2017-09-11T19:56:34.284Z,9.43
2017-09-11T19:59:03.934Z,9.50
2017-09-11T20:01:33.613Z,8.30
2017-09-11T20:04:04.062Z,7.80
2017-09-11T20:06:33.741Z,8.90
2017-09-11T20:09:04.429Z,9.83
2017-09-11T20:11:35.049Z,8.93
2017-09-11T20:14:05.295Z,8.27
2017-09-11T20:16:35.188Z,7.93
2017-09-11T20:19:05.076Z,8.97
2017-09-11T20:21:35.531Z,8.50
2017-09-11T20:24:05.231Z,9.20
2017-09-11T20:26:35.267Z,8.50
2017-09-11T20:29:04.983Z,9.40
2017-09-11T20:31:34.678Z,8.90
2017-09-11T20:34:04.368Z,7.97
2017-09-11T20:36:34.063Z,8.33
2017-09-11T20:39:05.920Z,9.90
2017-09-11T20:41:36.443Z,9.13
2017-09-11T20:44:07.066Z,9.00
2017-09-11T20:46:36.804Z,9.07
2017-09-11T20:49:07.547Z,9.60
2017-09-11T20:51:37.881Z,10.00
2017-09-11T20:54:08.386Z,9.13
2017-09-11T20:56:39.094Z,8.70
2017-09-11T20:59:08.786Z,9.03
2017-09-11T21:01:38.507Z,9.60
2017-09-11T21:04:08.229Z,9.73
2017-09-11T21:06:37.886Z,9.50
2017-09-11T21:09:07.617Z,8.73
2017-09-11T21:11:37.301Z,9.50
2017-09-11T21:14:07.380Z,9.77
2017-09-11T21:16:38.331Z,9.33
2017-09-11T21:19:09.773Z,10.47
2017-09-11T21:21:40.200Z,10.20
2017-09-11T21:24:10.692Z,10.20
2017-09-11T21:26:40.848Z,9.67
2017-09-11T21:29:11.332Z,10.33
2017-09-11T21:31:42.193Z,10.40
2017-09-11T21:34:11.951Z,10.97
2017-09-11T21:36:41.651Z,11.10
2017-09-11T21:39:11.325Z,11.10
2017-09-11T21:41:40.992Z,11.63
2017-09-11T21:44:12.432Z,10.10
2017-09-11T21:46:42.136Z,11.60
2017-09-11T21:49:11.921Z,10.80
2017-09-11T21:51:42.372Z,11.00
2017-09-11T21:54:12.078Z,11.47
2017-09-11T21:56:42.284Z,11.00
2017-09-11T21:59:12.767Z,11.67
2017-09-11T22:01:43.011Z,11.13
2017-09-11T22:04:12.748Z,11.43
2017-09-11T22:06:42.485Z,11.37
2017-09-11T22:09:12.209Z,10.63
2017-09-11T22:11:41.871Z,11.80
2017-09-11T22:14:12.985Z,10.93
2017-09-11T22:16:42.657Z,11.90
2017-09-11T22:19:12.731Z,12.37
2017-09-11T22:21:43.188Z,12.07
2017-09-11T22:24:12.924Z,12.97
2017-09-11T22:26:42.605Z,12.90
2017-09-11T22:29:12.301Z,12.23
2017-09-11T22:31:43.241Z,13.63
2017-09-11T22:34:13.708Z,12.33
2017-09-11T22:36:43.398Z,11.43
2017-09-11T22:39:13.082Z,10.80
2017-09-11T22:41:43.582Z,11.73
2017-09-11T22:44:13.929Z,10.93
2017-09-11T22:46:44.439Z,9.40
2017-09-11T22:49:14.765Z,10.20
2017-09-11T22:51:44.407Z,9.30
2017-09-11T22:54:14.089Z,9.67
2017-09-11T22:56:43.738Z,9.23
2017-09-11T22:59:13.410Z,10.23
2017-09-11T23:01:44.237Z,11.30
2017-09-11T23:04:13.938Z,11.03
2017-09-11T23:06:44.083Z,10.07
2017-09-11T23:09:14.524Z,11.27
2017-09-11T23:11:44.200Z,11.50
2017-09-11T23:14:13.931Z,11.17
2017-09-11T23:16:44.388Z,11.07
2017-09-11T23:19:15.351Z,10.00
2017-09-11T23:21:44.996Z,9.87
2017-09-11T23:24:15.428Z,10.80
2017-09-11T23:26:45.903Z,11.07
2017-09-11T23:29:15.629Z,12.20
2017-09-11T23:31:45.599Z,12.00
2017-09-11T23:34:15.244Z,11.73
2017-09-11T23:36:45.598Z,12.00
2017-09-11T23:39:15.347Z,12.60
2017-09-11T23:41:45.042Z,13.47
2017-09-11T23:44:14.716Z,11.70
2017-09-11T23:46:44.459Z,10.80
2017-09-11T23:49:15.288Z,13.17
2017-09-11T23:51:45.896Z,13.00
2017-09-11T23:54:15.629Z,12.97
2017-09-11T23:56:46.108Z,12.17
2017-09-11T23:59:15.850Z,12.87
